Tompkins, Shawna
United StatesWomanBorn 19722008 – 2012Runner id 150010
Events
42
2008 – 2012
Best pace
12.170
km/h · 2012
Best finish
1st
of 36 · 2012
Distance raced
2,852
km · splits not double-counted
Pace over time
km/h · higher is faster
Pace over time: 42 races from 2008 to 2012, ranging from 4.33 to 12.40 kilometres per hour, where higher is faster. A second, age-graded series is drawn above it; the gap between the two is the age credit.
- Actual pace
- Age-graded pace
Results
| Date | Event | Distance | Result | Pace km/h | Placing |
|---|---|---|---|---|---|
| 2008-02-16 | 50km | 5:53:01 h | 8.498 | 17/59 | |
| 2008-03-15 | Chuckanut 50KUnited States | 50km | 5:08:21 h | 9.729 | 44/294 |
| 2008-05-25 | 50km | 4:40:06 h | 10.710 | 7/72 | |
| 2008-06-14 | Lake Youngs UltraUnited States | 28.8mi | 3:54:16 h | 11.871 | 11/95 |
| 2008-09-13 | Cle Elum Ridge 50kUnited States | 50km | 5:17:00 h | 9.464 | 9/80 |
| 2009-02-07 | Orcas Island 50kUnited States | 50km | 5:22:41 h | 9.297 | 10/106 |
| 2009-03-14 | 50km | 4:30:58 h | 11.071 | 53/458 | |
| 2009-03-21 | Chuckanut 50KUnited States | 50km | 4:42:43 h | 10.611 | 31/270 |
| 2009-04-25 | 55km | 6:11:33 h | 8.882 | 10/43 | |
| 2009-05-16 | Watershed Preserve 12 Hr Trail RaceUnited States | 12h | 113.619 km | 9.468 | 2/66 |
| 2009-06-13 | Lake Youngs UltraUnited States | 28.8mi | 3:52:59 h | 11.936 | 8/58 |
| 2009-10-03 | Baker Lake 50K Ultra Trail RunUnited States | 50km | 5:18:00 h | 9.434 | 4/65 |
| 2010-01-16 | 34mi | 4:37:00 h | 11.852 | 4/38 | |
| 2010-02-06 | 50km | 5:17:56 h | 9.436 | 11/123 | |
| 2010-03-13 | 50km | 4:59:53 h | 10.004 | 76/472 | |
| 2010-03-20 | 50km | 4:51:27 h | 10.293 | 49/287 | |
| 2010-04-25 | 50mi | 8:08:15 h | 9.888 | 11/88 | |
| 2010-05-15 | 12h | 51.901 km | 4.325 | 67/80 | |
| 2010-08-28 | 100mi | 23:01:04 h | 6.992 | 14/78 | |
| 2010-10-02 | Baker Lake 50K Ultra Trail RunUnited States | 50km | 5:02:00 h | 9.934 | 7/115 |
| 2011-01-15 | 34mi | 5:43:00 h | 9.572 | 6/43 | |
| 2011-02-05 | Orcas Island 50kUnited States | 50km | 5:43:20 h | 8.738 | 12/129 |
| 2011-03-06 | Lord Hill Trail RunUnited States | 50km | 4:51:42 h | 10.285 | 2/25 |
| 2011-03-11 | 50km | 5:08:03 h | 9.739 | 6/125 | |
| 2011-03-19 | 50km | 4:45:39 h | 10.502 | 36/298 | |
| 2011-04-03 | 50km | 6:49:29 h | 7.326 | 8/63 | |
| 2011-05-22 | 50mi | 6:58:19 h | 11.542 | 6/39 | |
| 2011-07-30 | 50mi | 8:07:53 h | 9.896 | 11/244 | |
| 2011-08-27 | 100mi | 21:15:55 h | 7.568 | 6/106 | |
| 2011-09-17 | 50km | 5:12:52 h | 9.589 | 5/80 | |
| 2011-10-29 | 12h | 52.802 km | 4.400 | 22/27 | |
| 2011-11-19 | Grand Ridge 50 Km Trail RunUnited States | 50km | 4:48:21 h | 10.404 | 2/19 |
| 2011-12-10 | 50km | 5:16:27 h | 9.480 | 13/63 | |
| 2012-01-28 | Lake Youngs Nuts RunUnited States | 50km | 4:06:30 h | 12.170 | 5/57 |
| 2012-02-04 | 50km | 5:25:08 h | 9.227 | 13/171 | |
| 2012-02-25 | 50mi | 8:44:08 h | 9.211 | 11/82 | |
| 2012-03-30 | 100mi | 21:34:03 h | 7.462 | 1/36 | |
| 2012-04-21 | 50km | 7:03:38 h | 7.082 | 20/89 | |
| 2012-05-20 | 50km | 4:42:47 h | 10.609 | 7/98 | |
| 2012-06-09 | 100mi | 20:45:05 h | 7.755 | 6/131 | |
| 2012-09-12 | 50km | 8:52:18 h | 5.636 | 21/45 | |
| 2012-09-28 | 100mi | 23:01:59 h | 6.987 | 11/170 |